SKY738A PGUM-RJTT
Flight info
| Callsign | SKY738A |
|---|---|
| Flight time | N/A |
| Altitude | 38000 |
| Route | TOESS B586 SABRI/N0450F370 Y873 FITTO Y87 TOPIT Y875 AROSA |
| Aircraft | B38M/M-SDE3FGHILORVWY/LB1 |
Departure
| Time | 2026-05-04 09:51 |
|---|---|
| Airport | Antonio B. Won Pat International Airport (PGUM) |
Arrival
| Time | N/A |
|---|---|
| Airport | Tokyo Haneda International Airport (RJTT) |
| Time | Latitude | Longitude | Altitude | Speed | Heading |
|---|---|---|---|---|---|
| 2026-05-04 09:29 | 13.49108 | 144.80411 | 298 ft | 0 kts | 332° |
| 2026-05-04 09:31 | 13.49109 | 144.80411 | 298 ft | 0 kts | 332° |
| 2026-05-04 09:31 | 13.49108 | 144.80411 | 298 ft | 0 kts | 332° |
| 2026-05-04 09:40 | 13.49104 | 144.80414 | 298 ft | 2 kts | 332° |
| 2026-05-04 09:40 | 13.49087 | 144.80423 | 301 ft | 3 kts | 332° |
| 2026-05-04 09:40 | 13.49069 | 144.80433 | 301 ft | 3 kts | 332° |
| 2026-05-04 09:40 | 13.49052 | 144.80443 | 300 ft | 2 kts | 331° |
| 2026-05-04 09:41 | 13.49038 | 144.80451 | 298 ft | 3 kts | 313° |
| 2026-05-04 09:42 | 13.49042 | 144.80494 | 301 ft | 0 kts | 240° |
| 2026-05-04 09:46 | 13.49031 | 144.80475 | 299 ft | 6 kts | 240° |
| 2026-05-04 09:46 | 13.49012 | 144.80441 | 298 ft | 0 kts | 237° |
| 2026-05-04 09:47 | 13.48985 | 144.80414 | 298 ft | 13 kts | 223° |
| 2026-05-04 09:47 | 13.48903 | 144.80321 | 298 ft | 21 kts | 236° |
| 2026-05-04 09:49 | 13.48300 | 144.79023 | 288 ft | 27 kts | 245° |
| 2026-05-04 09:49 | 13.48215 | 144.78839 | 287 ft | 29 kts | 245° |
| 2026-05-04 09:49 | 13.48144 | 144.78682 | 286 ft | 25 kts | 245° |
| 2026-05-04 09:51 | 13.47840 | 144.78283 | 269 ft | 19 kts | 66° |
| 2026-05-04 09:51 | 13.47999 | 144.78633 | 273 ft | 93 kts | 65° |
| 2026-05-04 09:51 | 13.48372 | 144.79419 | 377 ft | 143 kts | 65° |
| 2026-05-04 09:51 | 13.48704 | 144.80411 | 1038 ft | 150 kts | 84° |
| 2026-05-04 09:52 | 13.48738 | 144.81492 | 1781 ft | 153 kts | 89° |
| 2026-05-04 09:52 | 13.48710 | 144.82643 | 2461 ft | 173 kts | 90° |
| 2026-05-04 09:52 | 13.48685 | 144.83938 | 3135 ft | 194 kts | 90° |
| 2026-05-04 09:52 | 13.48663 | 144.85393 | 3819 ft | 213 kts | 90° |
| 2026-05-04 09:53 | 13.48649 | 144.86988 | 4525 ft | 233 kts | 90° |
| 2026-05-04 09:53 | 13.48659 | 144.88717 | 5256 ft | 250 kts | 86° |
| 2026-05-04 09:53 | 13.49171 | 144.90428 | 6384 ft | 255 kts | 64° |
| 2026-05-04 09:53 | 13.50198 | 144.91958 | 7225 ft | 267 kts | 49° |
| 2026-05-04 09:54 | 13.51672 | 144.93135 | 8209 ft | 270 kts | 37° |
| 2026-05-04 09:54 | 13.53225 | 144.94259 | 9132 ft | 275 kts | 38° |
| 2026-05-04 09:54 | 13.54768 | 144.95392 | 10057 ft | 279 kts | 38° |
| 2026-05-04 09:54 | 13.56375 | 144.96583 | 10725 ft | 293 kts | 38° |
| 2026-05-04 09:55 | 13.58078 | 144.97841 | 11296 ft | 309 kts | 35° |
| 2026-05-04 09:55 | 13.60105 | 144.98676 | 12054 ft | 322 kts | 13° |
| 2026-05-04 09:55 | 13.62363 | 144.98638 | 12944 ft | 333 kts | 351° |
| 2026-05-04 09:55 | 13.64623 | 144.98002 | 13834 ft | 340 kts | 346° |
| 2026-05-04 09:56 | 13.66916 | 144.97362 | 14696 ft | 343 kts | 346° |
| 2026-05-04 09:56 | 13.69225 | 144.96710 | 15613 ft | 345 kts | 346° |
| 2026-05-04 09:56 | 13.71550 | 144.96050 | 16497 ft | 348 kts | 347° |
| 2026-05-04 09:56 | 13.73855 | 144.95395 | 17342 ft | 350 kts | 346° |
| 2026-05-04 09:57 | 13.76216 | 144.94721 | 18168 ft | 353 kts | 347° |
| 2026-05-04 09:57 | 13.78585 | 144.94046 | 18927 ft | 355 kts | 346° |
| 2026-05-04 09:57 | 13.80988 | 144.93363 | 19468 ft | 362 kts | 345° |
| 2026-05-04 09:57 | 13.83434 | 144.92666 | 20064 ft | 367 kts | 346° |
| 2026-05-04 09:58 | 13.85902 | 144.91962 | 20738 ft | 369 kts | 345° |
| 2026-05-04 09:58 | 13.88398 | 144.91251 | 21314 ft | 375 kts | 345° |
| 2026-05-04 09:58 | 13.90923 | 144.90530 | 21911 ft | 379 kts | 345° |
| 2026-05-04 10:00 | 14.09699 | 144.87664 | 24942 ft | 399 kts | 353° |
| 2026-05-04 10:00 | 14.12455 | 144.87333 | 24953 ft | 398 kts | 353° |